Time;durP1;ratioP1;P1;durP2;ratioP2;P2;SDS_P1;SDS_P2;PMS_P1;PMS_P2;Temp;Humidity;BMP_temperature;BMP_pressure;BME280_temperature;BME280_humidity;BME280_pressure;Samples;Min_cycle;Max_cycle;Signal;HPM_P1;HPM_P2
2023/10/08 00:01:43;;;;;;;;;;;;;;;20.59;28.82;98017.41;5038541;28;1171;-77
2023/10/08 00:04:10;;;;;;;;;;;;;;;20.54;28.57;98012.28;5055368;28;1113;-77
2023/10/08 00:06:37;;;;;;;;;;;;;;;20.72;28.46;98007.00;5022399;28;1139;-77
2023/10/08 00:09:10;;;;;;;;;;;;;;;20.76;28.35;98002.06;5038536;28;971;-78
2023/10/08 00:11:40;;;;;;;;;;;;;;;20.39;29.02;97999.66;5055371;28;971;-77
2023/10/08 00:14:09;;;;;;;;;;;;;;;20.65;28.65;97995.88;5039221;28;1902;-77
2023/10/08 00:16:35;;;;;;;;;;;;;;;20.75;28.56;97999.69;5059498;28;1023;-77
2023/10/08 00:19:08;;;;;;;;;;;;;;;20.86;28.18;97994.56;5079672;28;919;-77
2023/10/08 00:21:35;;;;;;;;;;;;;;;20.86;28.18;97993.78;5064311;28;1420;-77
2023/10/08 00:24:05;;;;;;;;;;;;;;;20.85;28.06;97992.19;5046229;28;1208;-77
2023/10/08 00:26:30;;;;;;;;;;;;;;;20.73;28.26;97993.69;5080055;28;958;-77
2023/10/08 00:28:56;;;;;;;;;;;;;;;20.60;28.63;97982.25;5078974;28;997;-77
2023/10/08 00:31:26;;;;;;;;;;;;;;;20.54;28.72;97979.16;5058565;28;1263;-77
2023/10/08 00:33:52;;;;;;;;;;;;;;;20.55;28.48;97979.94;5058403;28;1902;-77
2023/10/08 00:36:18;;;;;;;;;;;;;;;20.76;28.26;97979.44;5058625;28;902;-77
2023/10/08 00:38:45;;;;;;;;;;;;;;;20.45;29.00;97975.28;5041438;28;1251;-77
2023/10/08 00:41:15;;;;;;;;;;;;;;;20.44;29.51;97973.69;5025200;28;1132;-77
2023/10/08 00:43:41;;;;;;;;;;;;;;;20.55;29.38;97971.47;5017800;28;1103;-77
2023/10/08 00:46:26;;;;;;;;;;;;;;;21.04;28.41;97971.53;5018241;28;1092;-77
2023/10/08 00:48:55;;;;;;;;;;;;;;;20.76;28.99;97962.47;5017997;28;1135;-78
2023/10/08 00:51:27;;;;;;;;;;;;;;;20.68;29.33;97966.72;5014838;28;1398;-77
2023/10/08 00:53:57;;;;;;;;;;;;;;;20.67;29.30;97959.44;5014499;28;1914;-78
2023/10/08 00:56:25;;;;;;;;;;;;;;;20.56;29.33;97958.91;4998469;28;1321;-77
2023/10/08 00:58:53;;;;;;;;;;;;;;;20.52;29.41;97955.38;5014604;28;972;-77
2023/10/08 01:01:20;;;;;;;;;;;;;;;20.61;29.43;97966.06;5014846;28;990;-77
2023/10/08 01:03:49;;;;;;;;;;;;;;;20.47;29.77;97956.72;4998292;28;1195;-78
2023/10/08 01:06:18;;;;;;;;;;;;;;;20.81;29.42;97963.97;4959698;28;1274;-78
2023/10/08 01:08:51;;;;;;;;;;;;;;;20.99;29.04;97966.41;4975165;28;1052;-78
2023/10/08 01:11:18;;;;;;;;;;;;;;;20.79;29.49;97960.81;4991822;28;1281;-77
2023/10/08 01:13:45;;;;;;;;;;;;;;;20.99;29.18;97957.91;4977912;28;1991;-78
2023/10/08 01:16:11;;;;;;;;;;;;;;;20.72;29.58;97956.09;4994409;28;1253;-77
2023/10/08 01:18:42;;;;;;;;;;;;;;;20.46;30.05;97952.25;5011423;28;1059;-77
2023/10/08 01:21:11;;;;;;;;;;;;;;;20.51;29.69;97948.13;4996328;28;1163;-77
2023/10/08 01:23:38;;;;;;;;;;;;;;;20.92;29.24;97949.59;4998316;28;1124;-77
2023/10/08 01:26:10;;;;;;;;;;;;;;;20.77;29.22;97947.09;4998760;28;918;-77
2023/10/08 01:28:36;;;;;;;;;;;;;;;20.61;29.81;97944.25;4986828;28;1231;-77
2023/10/08 01:31:03;;;;;;;;;;;;;;;20.79;29.33;97947.47;5015348;28;963;-77
2023/10/08 01:33:37;;;;;;;;;;;;;;;20.76;29.43;97933.41;5014610;28;1981;-77
2023/10/08 01:36:04;;;;;;;;;;;;;;;20.78;29.36;97931.75;5015399;28;966;-77
2023/10/08 01:38:35;;;;;;;;;;;;;;;21.04;28.91;97943.22;5005344;28;1061;-77
2023/10/08 01:41:05;;;;;;;;;;;;;;;20.93;29.13;97937.03;5022288;28;1039;-78
2023/10/08 01:43:31;;;;;;;;;;;;;;;20.83;29.29;97926.78;5021873;28;1215;-77
2023/10/08 01:45:56;;;;;;;;;;;;;;;21.21;28.60;97925.00;5021849;28;1042;-77
2023/10/08 01:48:28;;;;;;;;;;;;;;;20.85;29.41;97921.50;5004911;28;1124;-77
2023/10/08 01:50:54;;;;;;;;;;;;;;;20.55;29.78;97920.56;5021535;28;1151;-78
2023/10/08 01:53:20;;;;;;;;;;;;;;;20.64;29.85;97911.50;5017655;28;1903;-78
2023/10/08 01:55:48;;;;;;;;;;;;;;;20.90;29.51;97909.66;5018408;28;1150;-77
2023/10/08 01:58:17;;;;;;;;;;;;;;;20.95;28.99;97906.28;5017957;28;946;-77
2023/10/08 02:00:45;;;;;;;;;;;;;;;20.64;29.49;97915.13;5043791;28;1585;-77
2023/10/08 02:03:15;;;;;;;;;;;;;;;20.68;29.68;97903.72;5028112;28;1304;-78
2023/10/08 02:05:42;;;;;;;;;;;;;;;20.58;29.74;97905.56;5061006;28;1119;-77
2023/10/08 02:08:08;;;;;;;;;;;;;;;20.73;29.44;97904.00;5060446;28;1019;-77
2023/10/08 02:10:35;;;;;;;;;;;;;;;20.95;29.19;97894.97;5027927;28;1099;-77
2023/10/08 02:13:01;;;;;;;;;;;;;;;20.90;29.33;97898.34;5060844;28;930;-77
2023/10/08 02:15:27;;;;;;;;;;;;;;;20.80;29.37;97888.88;5060610;28;1918;-77
2023/10/08 02:17:54;;;;;;;;;;;;;;;20.79;29.65;97882.44;5060578;28;1268;-77
2023/10/08 02:20:21;;;;;;;;;;;;;;;20.79;29.25;97888.09;5027815;28;1364;-77
2023/10/08 02:22:49;;;;;;;;;;;;;;;20.87;29.26;97885.06;5060518;28;1131;-77
2023/10/08 02:25:14;;;;;;;;;;;;;;;20.86;29.17;97886.31;5045691;28;1270;-77
2023/10/08 02:27:40;;;;;;;;;;;;;;;20.43;29.97;97887.34;5064861;28;883;-77
2023/10/08 02:30:09;;;;;;;;;;;;;;;20.65;29.70;97888.44;5040126;28;1237;-77
2023/10/08 02:32:36;;;;;;;;;;;;;;;20.65;29.63;97890.47;5040211;28;1001;-77
2023/10/08 02:35:03;;;;;;;;;;;;;;;20.65;29.95;97893.28;5023971;28;1914;-77
2023/10/08 02:37:28;;;;;;;;;;;;;;;20.93;29.41;97889.72;5056977;28;962;-78
2023/10/08 02:39:54;;;;;;;;;;;;;;;20.74;29.48;97885.78;5023399;28;1173;-77
2023/10/08 02:42:21;;;;;;;;;;;;;;;20.60;29.71;97877.66;5023585;28;1256;-77
2023/10/08 02:44:47;;;;;;;;;;;;;;;20.92;29.17;97878.88;5007519;28;1248;-77
2023/10/08 02:47:20;;;;;;;;;;;;;;;20.74;29.40;97877.31;5020588;28;1092;-77
2023/10/08 02:49:48;;;;;;;;;;;;;;;20.83;29.56;97884.34;5021049;28;978;-78
2023/10/08 02:52:15;;;;;;;;;;;;;;;20.73;29.69;97872.91;5004395;28;981;-78
2023/10/08 02:54:41;;;;;;;;;;;;;;;20.79;29.32;97881.63;4977439;28;1910;-77
2023/10/08 02:57:13;;;;;;;;;;;;;;;20.86;29.55;97875.00;4977359;28;991;-77
2023/10/08 02:59:40;;;;;;;;;;;;;;;20.84;29.26;97878.28;4961317;28;1073;-78
2023/10/08 03:02:18;;;;;;;;;;;;;;;20.79;29.33;97876.78;4919909;29;1296;-79
2023/10/08 03:04:45;;;;;;;;;;;;;;;20.81;29.38;97868.63;4934986;29;1132;-78
2023/10/08 03:07:21;;;;;;;;;;;;;;;20.80;29.41;97872.69;4935608;29;1294;-78
2023/10/08 03:09:50;;;;;;;;;;;;;;;20.79;29.70;97865.47;4915329;29;1413;-78
2023/10/08 03:12:19;;;;;;;;;;;;;;;20.80;29.56;97861.38;4901187;29;993;-78
2023/10/08 03:15:01;;;;;;;;;;;;;;;21.02;29.13;97872.16;4900919;29;1910;-79
2023/10/08 03:17:29;;;;;;;;;;;;;;;20.75;29.46;97856.25;4904267;29;1304;-78
2023/10/08 03:20:27;;;;;;;;;;;;;;;20.64;29.72;97844.44;4919912;29;981;-78
2023/10/08 03:22:45;;;;;;;;;;;;;;;20.77;29.28;97850.94;4916995;29;1200;-78
2023/10/08 03:25:16;;;;;;;;;;;;;;;20.73;29.25;97838.16;4946440;28;1186;-79
2023/10/08 03:27:42;;;;;;;;;;;;;;;20.58;29.66;97832.09;4938442;29;1105;-78
2023/10/08 03:30:14;;;;;;;;;;;;;;;20.77;29.40;97842.47;4938121;29;1303;-78
2023/10/08 03:32:44;;;;;;;;;;;;;;;20.77;29.17;97828.34;4948951;28;1010;-78
2023/10/08 03:35:12;;;;;;;;;;;;;;;21.11;28.92;97824.22;4980136;28;1983;-78
2023/10/08 03:37:41;;;;;;;;;;;;;;;21.03;29.03;97822.81;4977910;28;1787;-78
2023/10/08 03:40:24;;;;;;;;;;;;;;;20.77;29.28;97817.03;4986066;28;908;-78
2023/10/08 03:42:49;;;;;;;;;;;;;;;20.68;29.49;97813.25;5001431;28;899;-78
2023/10/08 03:45:22;;;;;;;;;;;;;;;21.06;29.09;97816.28;4999440;28;976;-79
2023/10/08 03:48:01;;;;;;;;;;;;;;;20.81;29.40;97806.41;5020336;28;1007;-78
2023/10/08 03:50:32;;;;;;;;;;;;;;;20.74;29.45;97800.97;5035414;28;1030;-78
2023/10/08 03:52:58;;;;;;;;;;;;;;;20.68;29.69;97813.25;5020074;28;1866;-78
2023/10/08 03:55:26;;;;;;;;;;;;;;;20.94;29.43;97808.53;5018729;28;1914;-78
2023/10/08 03:58:03;;;;;;;;;;;;;;;20.74;29.33;97805.81;5019107;28;1110;-78
2023/10/08 04:00:31;;;;;;;;;;;;;;;20.68;29.48;97802.75;5019058;28;1134;-79
2023/10/08 04:03:01;;;;;;;;;;;;;;;20.59;29.73;97810.25;5019156;28;1451;-78
2023/10/08 04:05:43;;;;;;;;;;;;;;;20.79;29.69;97803.25;5036633;28;1093;-78
2023/10/08 04:08:24;;;;;;;;;;;;;;;20.56;29.75;97806.25;5085281;28;1364;-78
2023/10/08 04:13:44;;;;;;;;;;;;;;;20.78;29.56;97807.31;5012483;28;1910;-78
2023/10/08 04:16:09;;;;;;;;;;;;;;;20.79;29.32;97797.59;5030951;28;1081;-78
2023/10/08 04:18:40;;;;;;;;;;;;;;;20.61;29.69;97808.56;4998608;28;1039;-78
2023/10/08 04:21:12;;;;;;;;;;;;;;;20.64;29.67;97796.38;5030979;28;972;-79
2023/10/08 04:23:39;;;;;;;;;;;;;;;20.44;29.93;97798.47;4997801;28;1169;-78
2023/10/08 04:26:06;;;;;;;;;;;;;;;20.55;29.69;97799.03;5027578;28;1421;-78
2023/10/08 04:28:34;;;;;;;;;;;;;;;20.52;29.89;97799.91;5011078;28;1407;-78
2023/10/08 04:31:14;;;;;;;;;;;;;;;20.81;29.37;97795.09;4972367;28;1019;-79
2023/10/08 04:33:40;;;;;;;;;;;;;;;20.98;28.96;97787.38;4956805;29;1910;-79
2023/10/08 04:36:07;;;;;;;;;;;;;;;20.87;29.52;97786.09;4988898;28;1006;-78
2023/10/08 04:38:39;;;;;;;;;;;;;;;20.89;29.53;97789.28;4956434;28;1013;-79
2023/10/08 04:41:08;;;;;;;;;;;;;;;20.73;29.65;97781.63;4940736;29;932;-79
2023/10/08 04:43:37;;;;;;;;;;;;;;;20.70;29.87;97783.28;4973058;28;1383;-79
2023/10/08 04:46:19;;;;;;;;;;;;;;;20.73;29.59;97779.59;4975748;28;1097;-79
2023/10/08 04:48:45;;;;;;;;;;;;;;;20.75;29.57;97779.94;4973724;28;972;-79
2023/10/08 04:51:13;;;;;;;;;;;;;;;20.81;29.29;97777.34;5037631;28;966;-78
2023/10/08 04:53:40;;;;;;;;;;;;;;;20.76;29.37;97775.84;5054081;28;1910;-78
2023/10/08 04:56:13;;;;;;;;;;;;;;;20.94;29.30;97774.59;5024417;28;1445;-78
2023/10/08 04:58:40;;;;;;;;;;;;;;;20.71;29.82;97773.56;5061887;28;1586;-78
2023/10/08 05:01:47;;;;;;;;;;;;;;;20.67;29.61;97772.84;5061957;28;1000;-78
2023/10/08 05:12:08;;;;;;;;;;;;;;;20.75;29.73;97771.44;5067866;28;1106;-78
2023/10/08 05:17:09;;;;;;;;;;;;;;;20.92;29.24;97777.06;5083327;28;906;-78
2023/10/08 05:30:53;;;;;;;;;;;;;;;20.84;29.63;97758.72;5011506;28;1046;-79
2023/10/08 05:33:59;;;;;;;;;;;;;;;20.69;30.02;97753.44;4998496;28;1044;-78
2023/10/08 05:36:19;;;;;;;;;;;;;;;20.86;29.74;97764.72;4998732;28;991;-78
2023/10/08 05:39:00;;;;;;;;;;;;;;;20.95;29.39;97765.66;4998152;28;1051;-79
2023/10/08 05:41:51;;;;;;;;;;;;;;;20.74;29.69;97761.38;5020540;28;1334;-78
2023/10/08 05:46:56;;;;;;;;;;;;;;;20.99;29.50;97754.25;4982760;28;979;-78
2023/10/08 05:52:14;;;;;;;;;;;;;;;21.06;29.47;97760.50;4998511;28;954;-78
2023/10/08 05:54:57;;;;;;;;;;;;;;;20.95;29.47;97759.22;4984131;28;1946;-78
2023/10/08 05:57:46;;;;;;;;;;;;;;;21.00;29.76;97775.63;4984220;28;1431;-79
2023/10/08 06:07:48;;;;;;;;;;;;;;;21.08;29.48;97771.34;5007723;28;1099;-78
2023/10/08 06:13:06;;;;;;;;;;;;;;;21.09;29.39;97764.47;5026369;28;1260;-78
2023/10/08 06:18:28;;;;;;;;;;;;;;;21.07;29.31;97778.25;5041749;28;1022;-78
2023/10/08 06:21:00;;;;;;;;;;;;;;;20.90;29.96;97773.91;5057220;28;900;-79
2023/10/08 06:23:31;;;;;;;;;;;;;;;21.07;29.27;97772.59;5039332;28;1428;-79
2023/10/08 06:25:58;;;;;;;;;;;;;;;20.84;29.96;97767.19;5040913;28;1028;-78
2023/10/08 06:28:27;;;;;;;;;;;;;;;20.88;29.98;97776.34;5049380;28;1462;-78
2023/10/08 06:30:53;;;;;;;;;;;;;;;20.75;29.85;97765.78;5057080;28;1023;-79
2023/10/08 06:33:20;;;;;;;;;;;;;;;20.90;30.00;97783.16;5056707;28;1016;-79
2023/10/08 06:38:32;;;;;;;;;;;;;;;20.91;29.88;97781.13;5086353;28;926;-79
2023/10/08 06:41:29;;;;;;;;;;;;;;;20.95;29.67;97764.88;5090828;28;936;-78
2023/10/08 06:44:13;;;;;;;;;;;;;;;21.05;29.62;97760.94;5026949;28;1435;-79
2023/10/08 06:46:39;;;;;;;;;;;;;;;20.80;30.11;97764.47;5017169;28;942;-78
2023/10/08 06:49:11;;;;;;;;;;;;;;;21.11;29.19;97758.34;5000693;28;1047;-78
2023/10/08 06:51:41;;;;;;;;;;;;;;;20.95;29.93;97753.56;5001206;28;894;-78
2023/10/08 06:54:10;;;;;;;;;;;;;;;20.95;29.84;97754.34;5000298;28;1976;-78
2023/10/08 06:56:35;;;;;;;;;;;;;;;21.10;29.54;97743.41;5000416;28;1020;-78
2023/10/08 06:59:01;;;;;;;;;;;;;;;21.12;29.40;97746.59;5014403;28;1423;-78
2023/10/08 07:01:38;;;;;;;;;;;;;;;21.00;29.82;97738.88;4989537;28;1421;-78
2023/10/08 07:04:06;;;;;;;;;;;;;;;20.91;29.94;97741.53;5002054;28;994;-78
2023/10/08 07:06:33;;;;;;;;;;;;;;;20.70;30.25;97735.22;5016752;28;916;-78
2023/10/08 07:09:05;;;;;;;;;;;;;;;20.87;29.88;97729.53;5016373;28;1060;-78
2023/10/08 07:11:34;;;;;;;;;;;;;;;20.94;29.90;97732.16;5000508;28;996;-78
2023/10/08 07:14:04;;;;;;;;;;;;;;;21.01;29.98;97726.31;4980838;28;1983;-78
2023/10/08 07:16:30;;;;;;;;;;;;;;;20.96;30.00;97726.84;4944135;28;1426;-78
2023/10/08 07:19:01;;;;;;;;;;;;;;;20.75;30.26;97712.06;4976629;28;943;-78
2023/10/08 07:21:44;;;;;;;;;;;;;;;20.75;30.21;97700.75;5004438;28;966;-79
2023/10/08 07:24:15;;;;;;;;;;;;;;;21.09;29.92;97707.88;5022043;28;962;-78
2023/10/08 07:26:46;;;;;;;;;;;;;;;21.21;29.43;97707.13;5020331;28;984;-78
2023/10/08 07:29:12;;;;;;;;;;;;;;;21.09;29.99;97719.22;5020338;28;1206;-78
2023/10/08 07:31:37;;;;;;;;;;;;;;;21.20;29.74;97719.69;5018199;28;1412;-78
2023/10/08 07:34:18;;;;;;;;;;;;;;;21.16;30.02;97718.19;4996354;28;1966;-78
2023/10/08 07:36:50;;;;;;;;;;;;;;;21.18;30.01;97727.81;4996737;28;903;-78
2023/10/08 07:39:33;;;;;;;;;;;;;;;21.21;29.86;97738.25;4979513;28;1615;-78
2023/10/08 07:42:08;;;;;;;;;;;;;;;20.94;30.19;97712.38;4980475;28;1227;-78
2023/10/08 07:44:35;;;;;;;;;;;;;;;21.03;30.15;97720.97;5009115;28;1050;-79
2023/10/08 07:47:01;;;;;;;;;;;;;;;21.17;29.99;97714.13;5035652;28;1033;-78
2023/10/08 07:49:29;;;;;;;;;;;;;;;20.99;30.39;97714.66;5038316;28;1349;-78
2023/10/08 07:51:55;;;;;;;;;;;;;;;21.12;29.98;97712.63;5035975;28;1515;-78
2023/10/08 07:54:23;;;;;;;;;;;;;;;21.16;29.98;97713.34;5038387;28;1906;-78
2023/10/08 07:56:48;;;;;;;;;;;;;;;21.06;30.23;97703.13;5023265;28;1613;-78
2023/10/08 07:59:16;;;;;;;;;;;;;;;21.04;30.03;97705.63;5035267;28;1003;-78
2023/10/08 08:01:42;;;;;;;;;;;;;;;20.89;30.70;97698.78;5035692;28;917;-78
2023/10/08 08:04:10;;;;;;;;;;;;;;;20.98;30.21;97701.72;5055559;28;980;-78
2023/10/08 08:06:37;;;;;;;;;;;;;;;21.04;30.37;97683.00;5060100;28;859;-79
2023/10/08 08:09:17;;;;;;;;;;;;;;;20.99;30.47;97680.72;5035190;28;1727;-78
2023/10/08 08:11:45;;;;;;;;;;;;;;;20.85;30.62;97683.94;5015417;28;1144;-78
2023/10/08 08:14:11;;;;;;;;;;;;;;;21.10;30.22;97681.19;4998799;28;1992;-78
2023/10/08 08:16:37;;;;;;;;;;;;;;;20.95;30.48;97680.00;5015621;28;1026;-79
2023/10/08 08:19:03;;;;;;;;;;;;;;;21.08;30.41;97678.78;4998796;28;1210;-78
2023/10/08 08:21:30;;;;;;;;;;;;;;;21.04;30.18;97680.94;5034707;28;1068;-79
2023/10/08 08:24:04;;;;;;;;;;;;;;;21.26;30.09;97686.75;5034598;28;953;-78
2023/10/08 08:26:32;;;;;;;;;;;;;;;21.07;30.46;97682.06;5019929;28;971;-79
2023/10/08 08:28:59;;;;;;;;;;;;;;;21.02;30.33;97686.25;5034255;28;1103;-79
2023/10/08 08:31:25;;;;;;;;;;;;;;;21.02;30.43;97688.28;5017793;28;1454;-78
2023/10/08 08:33:56;;;;;;;;;;;;;;;21.12;30.34;97677.91;5017744;28;1957;-78
2023/10/08 08:36:22;;;;;;;;;;;;;;;21.12;30.54;97687.16;5019325;28;989;-78
2023/10/08 08:38:47;;;;;;;;;;;;;;;20.98;30.71;97673.44;5001676;28;1203;-78
2023/10/08 08:41:14;;;;;;;;;;;;;;;21.25;30.22;97679.50;5021617;28;1199;-78
2023/10/08 08:43:44;;;;;;;;;;;;;;;21.18;30.57;97676.88;5056580;28;980;-78
2023/10/08 08:46:12;;;;;;;;;;;;;;;20.97;30.86;97678.31;5042538;28;1652;-78
2023/10/08 08:48:41;;;;;;;;;;;;;;;20.88;31.25;97668.88;5055415;28;986;-78
2023/10/08 08:51:07;;;;;;;;;;;;;;;21.06;30.80;97669.19;5055594;28;1131;-79
2023/10/08 08:53:36;;;;;;;;;;;;;;;21.24;30.20;97669.44;5055036;28;1973;-78
2023/10/08 08:56:04;;;;;;;;;;;;;;;21.18;30.30;97676.88;5072544;28;894;-79
2023/10/08 08:58:38;;;;;;;;;;;;;;;21.02;30.36;97668.47;5071964;28;798;-79
2023/10/08 09:01:05;;;;;;;;;;;;;;;21.12;30.47;97672.25;5072251;28;1384;-78
2023/10/08 09:03:31;;;;;;;;;;;;;;;21.33;29.97;97672.41;5074115;28;1472;-78
2023/10/08 09:05:57;;;;;;;;;;;;;;;21.31;29.90;97669.25;5108518;28;1275;-79
2023/10/08 09:08:24;;;;;;;;;;;;;;;20.98;30.48;97673.44;5092261;28;1031;-78
2023/10/08 09:10:52;;;;;;;;;;;;;;;21.12;30.22;97670.19;5075577;28;1110;-78
2023/10/08 09:13:21;;;;;;;;;;;;;;;20.95;30.74;97671.53;5108538;28;1027;-78
2023/10/08 09:15:47;;;;;;;;;;;;;;;21.03;30.18;97675.72;5091809;28;1976;-77
2023/10/08 09:18:14;;;;;;;;;;;;;;;21.01;30.19;97666.91;5075054;28;959;-78
2023/10/08 09:20:43;;;;;;;;;;;;;;;20.85;30.65;97669.81;5074626;28;1443;-79
2023/10/08 09:23:12;;;;;;;;;;;;;;;20.95;30.66;97663.03;5076173;28;1095;-78
2023/10/08 09:25:39;;;;;;;;;;;;;;;21.21;30.18;97673.16;5109279;28;930;-79
2023/10/08 09:28:07;;;;;;;;;;;;;;;21.22;29.88;97671.13;5091888;28;921;-77
2023/10/08 09:30:39;;;;;;;;;;;;;;;21.44;29.71;97660.75;5108178;28;1053;-78
2023/10/08 09:33:06;;;;;;;;;;;;;;;21.09;30.30;97668.28;5107609;28;988;-78
2023/10/08 09:35:31;;;;;;;;;;;;;;;21.13;29.94;97663.28;5106056;28;1983;-78
2023/10/08 09:37:57;;;;;;;;;;;;;;;21.27;29.92;97662.88;5071733;28;1445;-78
2023/10/08 09:40:23;;;;;;;;;;;;;;;21.19;30.12;97661.50;5076182;28;895;-78
2023/10/08 09:42:48;;;;;;;;;;;;;;;21.19;29.88;97652.22;5078952;28;912;-78
2023/10/08 09:45:14;;;;;;;;;;;;;;;21.19;29.72;97650.19;5112306;28;1067;-79
2023/10/08 09:47:42;;;;;;;;;;;;;;;21.11;30.20;97648.81;5079877;28;987;-78
2023/10/08 09:50:11;;;;;;;;;;;;;;;21.20;29.84;97660.25;5112608;28;806;-79
2023/10/08 09:52:39;;;;;;;;;;;;;;;21.16;29.93;97651.09;5094360;28;1395;-78
2023/10/08 09:55:11;;;;;;;;;;;;;;;21.38;29.74;97641.97;5060749;28;1909;-79
2023/10/08 09:57:37;;;;;;;;;;;;;;;21.45;29.66;97639.72;5077514;28;970;-79
2023/10/08 10:00:05;;;;;;;;;;;;;;;21.50;29.28;97625.00;5060440;28;1127;-78
2023/10/08 10:02:31;;;;;;;;;;;;;;;21.16;30.06;97628.44;5061414;28;905;-78
2023/10/08 10:04:56;;;;;;;;;;;;;;;21.11;30.00;97614.88;5060572;28;899;-79
2023/10/08 10:07:22;;;;;;;;;;;;;;;21.23;30.07;97611.25;5093535;28;1475;-79
2023/10/08 10:09:51;;;;;;;;;;;;;;;21.10;29.91;97606.84;5060521;28;1024;-78
2023/10/08 10:12:25;;;;;;;;;;;;;;;20.86;30.64;97603.50;5077333;28;897;-78
2023/10/08 10:14:53;;;;;;;;;;;;;;;21.01;30.29;97587.69;5061048;28;1906;-78
2023/10/08 10:17:22;;;;;;;;;;;;;;;21.08;30.07;97593.13;5038029;28;1631;-78
2023/10/08 10:19:54;;;;;;;;;;;;;;;21.41;29.75;97587.28;5037138;28;1042;-78
2023/10/08 10:22:30;;;;;;;;;;;;;;;21.23;30.11;97582.16;5021902;28;1607;-78
2023/10/08 10:25:03;;;;;;;;;;;;;;;20.92;30.56;97584.75;5037823;28;1079;-78
2023/10/08 10:27:29;;;;;;;;;;;;;;;21.22;29.95;97570.06;5024415;28;1218;-78
2023/10/08 10:30:03;;;;;;;;;;;;;;;21.13;29.84;97577.63;5040139;28;1010;-78
2023/10/08 10:32:29;;;;;;;;;;;;;;;21.13;30.11;97574.81;5017434;28;1162;-78
2023/10/08 10:34:54;;;;;;;;;;;;;;;21.21;30.05;97574.13;5000596;28;1914;-78
2023/10/08 10:37:20;;;;;;;;;;;;;;;21.09;30.30;97560.78;5017307;28;1416;-78
2023/10/08 10:40:01;;;;;;;;;;;;;;;20.89;30.81;97552.50;5006176;28;1436;-78
2023/10/08 10:42:29;;;;;;;;;;;;;;;21.17;30.51;97559.31;5001245;28;958;-78
2023/10/08 10:44:56;;;;;;;;;;;;;;;21.17;30.46;97567.78;5000587;28;984;-78
2023/10/08 10:50:09;;;;;;;;;;;;;;;20.90;30.61;97558.97;4984189;28;1450;-78
2023/10/08 10:57:55;;;;;;;;;;;;;;;21.25;30.13;97529.53;4995782;28;1611;-78
2023/10/08 11:03:17;;;;;;;;;;;;;;;21.16;30.24;97520.16;4991703;28;1311;-78
2023/10/08 11:05:51;;;;;;;;;;;;;;;21.18;30.23;97535.41;5022536;28;1065;-78
2023/10/08 11:08:18;;;;;;;;;;;;;;;21.23;30.31;97532.03;5003762;28;1069;-78
2023/10/08 11:10:49;;;;;;;;;;;;;;;21.23;30.28;97525.56;5003460;28;934;-78
2023/10/08 11:13:15;;;;;;;;;;;;;;;21.04;30.49;97524.59;5020621;28;923;-78
2023/10/08 11:15:40;;;;;;;;;;;;;;;21.09;30.36;97515.53;5018222;28;1914;-78
2023/10/08 11:18:09;;;;;;;;;;;;;;;21.20;30.25;97527.28;4996606;28;996;-77
2023/10/08 11:20:39;;;;;;;;;;;;;;;21.07;30.44;97526.50;4996516;28;960;-78
2023/10/08 11:23:21;;;;;;;;;;;;;;;21.27;30.09;97518.56;4964184;28;1195;-78
2023/10/08 11:25:59;;;;;;;;;;;;;;;21.28;30.31;97511.66;5016570;28;1163;-78
2023/10/08 11:28:27;;;;;;;;;;;;;;;21.35;29.92;97515.50;5018915;28;1301;-78
2023/10/08 11:30:53;;;;;;;;;;;;;;;21.02;30.23;97498.75;5035901;28;942;-78
2023/10/08 11:33:18;;;;;;;;;;;;;;;21.21;30.18;97506.22;5002933;28;1164;-78
2023/10/08 11:36:19;;;;;;;;;;;;;;;21.12;30.06;97508.94;5015713;28;1981;-78
2023/10/08 11:38:50;;;;;;;;;;;;;;;20.90;30.78;97502.41;4923877;29;1272;-78
2023/10/08 11:41:21;;;;;;;;;;;;;;;21.08;30.19;97514.72;4938630;29;998;-78
2023/10/08 11:44:00;;;;;;;;;;;;;;;21.19;30.01;97520.06;4921671;29;1340;-78
2023/10/08 11:46:27;;;;;;;;;;;;;;;21.13;30.46;97507.69;4922647;29;1128;-78
2023/10/08 11:49:03;;;;;;;;;;;;;;;21.33;29.90;97511.09;4922395;29;1001;-78
2023/10/08 11:51:30;;;;;;;;;;;;;;;21.13;30.15;97521.84;4922407;29;970;-78
2023/10/08 11:53:56;;;;;;;;;;;;;;;21.37;30.01;97518.69;4937663;29;1930;-78
2023/10/08 11:56:23;;;;;;;;;;;;;;;21.45;29.86;97514.34;4922269;29;906;-78
2023/10/08 11:58:48;;;;;;;;;;;;;;;21.36;29.84;97500.13;4934042;29;1360;-78
2023/10/08 12:01:15;;;;;;;;;;;;;;;21.13;30.35;97499.22;4937632;29;1379;-78
2023/10/08 12:03:41;;;;;;;;;;;;;;;21.12;30.20;97508.94;4933618;29;1406;-79
2023/10/08 12:06:07;;;;;;;;;;;;;;;21.16;30.05;97503.97;4928531;29;1145;-78
2023/10/08 12:08:39;;;;;;;;;;;;;;;20.98;30.58;97500.91;4956851;29;1041;-78
2023/10/08 12:11:11;;;;;;;;;;;;;;;21.17;30.17;97493.44;4957096;29;1043;-78
2023/10/08 12:13:44;;;;;;;;;;;;;;;21.14;30.00;97491.50;4984275;28;925;-77
2023/10/08 12:16:21;;;;;;;;;;;;;;;21.08;30.29;97480.75;5077243;28;1242;-78
2023/10/08 12:18:53;;;;;;;;;;;;;;;21.22;29.94;97479.50;5045580;28;1392;-78
2023/10/08 12:21:21;;;;;;;;;;;;;;;20.95;30.67;97476.38;5037984;28;1063;-78
2023/10/08 12:23:47;;;;;;;;;;;;;;;21.32;29.90;97475.56;5017936;28;1176;-78
2023/10/08 12:26:15;;;;;;;;;;;;;;;20.90;30.85;97474.13;5002072;28;1006;-78
2023/10/08 12:28:48;;;;;;;;;;;;;;;20.88;30.75;97470.94;5002063;28;1175;-78
2023/10/08 12:31:21;;;;;;;;;;;;;;;21.01;30.37;97464.03;5018722;28;921;-79
2023/10/08 12:33:47;;;;;;;;;;;;;;;21.23;30.30;97464.13;5025643;28;1991;-79
2023/10/08 12:36:12;;;;;;;;;;;;;;;21.36;29.99;97466.97;5014999;28;955;-78
2023/10/08 12:38:41;;;;;;;;;;;;;;;21.25;30.23;97461.63;5014690;28;961;-79
2023/10/08 12:41:13;;;;;;;;;;;;;;;21.03;30.76;97455.09;5015236;28;917;-78
2023/10/08 12:43:52;;;;;;;;;;;;;;;21.06;30.44;97454.97;5014506;28;1007;-79
2023/10/08 12:46:18;;;;;;;;;;;;;;;21.24;30.69;97453.59;5014781;28;1197;-78
2023/10/08 12:48:44;;;;;;;;;;;;;;;21.50;29.82;97465.66;5022407;28;1355;-78
2023/10/08 12:51:11;;;;;;;;;;;;;;;21.12;30.48;97460.84;5019787;28;988;-78
2023/10/08 12:53:37;;;;;;;;;;;;;;;21.16;30.66;97464.38;5038307;28;1072;-78
2023/10/08 12:56:05;;;;;;;;;;;;;;;21.26;30.33;97460.38;5041529;28;1934;-79
2023/10/08 12:58:34;;;;;;;;;;;;;;;21.41;30.01;97460.72;5054057;28;980;-78
2023/10/08 13:01:03;;;;;;;;;;;;;;;21.30;30.44;97463.91;5038004;28;1114;-78
2023/10/08 13:03:31;;;;;;;;;;;;;;;21.22;30.52;97444.78;5052986;28;1434;-78
2023/10/08 13:06:03;;;;;;;;;;;;;;;21.20;30.56;97455.75;5037821;28;1023;-78
2023/10/08 13:08:30;;;;;;;;;;;;;;;21.32;30.16;97450.09;5037113;28;993;-78
2023/10/08 13:11:00;;;;;;;;;;;;;;;21.25;30.13;97450.31;5053659;28;1418;-78
2023/10/08 13:13:26;;;;;;;;;;;;;;;21.14;30.41;97447.06;5054139;28;1145;-78
2023/10/08 13:15:55;;;;;;;;;;;;;;;21.28;30.15;97448.59;5037714;28;1979;-78
2023/10/08 13:18:21;;;;;;;;;;;;;;;21.23;30.33;97452.78;5058236;28;1108;-79
2023/10/08 13:20:48;;;;;;;;;;;;;;;21.41;29.86;97445.78;5058320;28;977;-78
2023/10/08 13:23:13;;;;;;;;;;;;;;;21.32;30.13;97444.44;5040756;28;1467;-78
2023/10/08 13:25:39;;;;;;;;;;;;;;;21.34;30.20;97443.97;5058083;28;885;-78
2023/10/08 13:28:07;;;;;;;;;;;;;;;21.18;30.74;97456.19;5041594;28;988;-78
2023/10/08 13:30:32;;;;;;;;;;;;;;;21.33;30.40;97446.00;5097443;28;915;-78
2023/10/08 13:32:59;;;;;;;;;;;;;;;21.33;30.31;97451.66;5082174;28;895;-78
2023/10/08 13:35:25;;;;;;;;;;;;;;;21.30;30.14;97446.94;5077453;28;1981;-78
2023/10/08 13:37:52;;;;;;;;;;;;;;;21.37;30.17;97447.94;5093166;28;1351;-78
2023/10/08 13:40:17;;;;;;;;;;;;;;;21.13;30.34;97436.97;5069307;28;1357;-78
2023/10/08 13:42:43;;;;;;;;;;;;;;;21.26;30.21;97448.28;5057590;28;943;-78
2023/10/08 13:45:09;;;;;;;;;;;;;;;21.17;30.44;97437.66;5057515;28;1025;-79
2023/10/08 13:47:34;;;;;;;;;;;;;;;21.24;30.22;97443.09;5057430;28;964;-78
2023/10/08 13:50:02;;;;;;;;;;;;;;;21.45;30.08;97429.44;5057621;28;909;-78
2023/10/08 13:52:28;;;;;;;;;;;;;;;21.41;30.09;97437.28;5074126;28;995;-77
2023/10/08 13:54:53;;;;;;;;;;;;;;;21.38;29.98;97432.53;5062859;28;1905;-78
2023/10/08 13:57:19;;;;;;;;;;;;;;;21.18;30.35;97433.56;5077557;28;1034;-79
2023/10/08 13:59:46;;;;;;;;;;;;;;;21.28;30.14;97438.06;5060261;28;947;-78
2023/10/08 14:02:15;;;;;;;;;;;;;;;21.25;30.38;97436.16;5060508;28;893;-78
2023/10/08 14:04:43;;;;;;;;;;;;;;;21.17;30.64;97442.53;5060133;28;1210;-78
2023/10/08 14:07:11;;;;;;;;;;;;;;;21.27;30.33;97430.84;5094109;28;888;-79
2023/10/08 14:09:37;;;;;;;;;;;;;;;21.63;29.82;97435.28;5060658;28;1381;-78